createdAt,value
2023-04-02T00:04:08.416Z,9.90
2023-04-02T00:06:46.911Z,9.70
2023-04-02T00:09:27.106Z,9.85
2023-04-02T00:18:02.052Z,9.82
2023-04-02T00:20:49.430Z,9.58
2023-04-02T00:23:21.397Z,9.59
2023-04-02T00:25:50.641Z,9.30
2023-04-02T00:28:20.055Z,9.66
2023-04-02T00:30:51.645Z,9.74
2023-04-02T00:33:22.883Z,9.51
2023-04-02T00:35:51.105Z,9.44
2023-04-02T00:38:23.413Z,9.47
2023-04-02T00:40:52.787Z,9.63
2023-04-02T00:43:21.073Z,9.63
2023-04-02T00:45:54.875Z,9.43
2023-04-02T00:48:40.915Z,9.60
2023-04-02T00:51:19.713Z,9.14
2023-04-02T00:53:50.600Z,9.39
2023-04-02T00:56:25.556Z,9.67
2023-04-02T00:58:55.129Z,9.19
2023-04-02T01:01:25.487Z,9.43
2023-04-02T01:03:58.080Z,9.14
2023-04-02T01:06:30.644Z,9.40
2023-04-02T01:09:16.905Z,9.64
2023-04-02T01:12:00.138Z,9.37
2023-04-02T01:14:42.777Z,9.60
2023-04-02T01:17:26.388Z,9.62
2023-04-02T01:20:16.877Z,9.42
2023-04-02T01:22:51.773Z,9.26
2023-04-02T01:25:28.529Z,9.30
2023-04-02T01:28:05.591Z,9.04
2023-04-02T01:30:38.275Z,9.37
2023-04-02T01:33:06.293Z,9.28
2023-04-02T01:35:38.884Z,9.45
2023-04-02T01:38:13.924Z,9.37
2023-04-02T01:40:50.890Z,9.43
2023-04-02T01:43:25.990Z,9.14
2023-04-02T01:45:56.890Z,8.98
2023-04-02T01:48:27.550Z,9.00
2023-04-02T01:50:57.563Z,9.31
2023-04-02T01:53:27.742Z,8.93
2023-04-02T01:55:57.035Z,9.30
2023-04-02T01:58:27.253Z,9.07
2023-04-02T02:01:02.536Z,9.13
2023-04-02T02:03:30.833Z,9.10
2023-04-02T02:05:59.626Z,9.04
2023-04-02T02:08:34.396Z,8.51
2023-04-02T02:11:03.176Z,8.44
2023-04-02T02:13:31.862Z,8.94
2023-04-02T02:16:04.348Z,8.69
2023-04-02T02:18:31.677Z,8.83
2023-04-02T02:21:01.090Z,8.56
2023-04-02T02:23:29.235Z,8.67
2023-04-02T02:25:56.794Z,8.63
2023-04-02T02:28:27.522Z,8.60
2023-04-02T02:31:01.522Z,8.32
2023-04-02T02:33:34.812Z,8.27
2023-04-02T02:36:05.469Z,8.04
2023-04-02T02:38:41.195Z,8.39
2023-04-02T02:41:16.623Z,8.12
2023-04-02T02:43:53.184Z,7.99
2023-04-02T02:46:24.014Z,8.43
2023-04-02T02:48:54.470Z,7.90
2023-04-02T02:51:27.891Z,8.14
2023-04-02T02:54:01.464Z,7.84
2023-04-02T02:56:31.852Z,7.80
2023-04-02T02:59:00.307Z,8.20
2023-04-02T03:01:29.234Z,8.26
2023-04-02T03:03:58.152Z,7.98
2023-04-02T03:06:25.517Z,7.81
2023-04-02T03:09:02.443Z,8.21
2023-04-02T03:11:38.600Z,8.13
2023-04-02T03:14:16.937Z,8.11
2023-04-02T03:16:47.419Z,8.10
2023-04-02T03:19:29.619Z,8.12
2023-04-02T03:22:03.058Z,7.54
2023-04-02T03:24:36.389Z,7.81
2023-04-02T03:27:11.827Z,7.99
2023-04-02T03:29:43.648Z,7.83
2023-04-02T03:32:17.328Z,8.06
2023-04-02T03:34:50.920Z,8.04
2023-04-02T03:37:22.649Z,7.85
2023-04-02T03:39:56.791Z,7.75
2023-04-02T03:42:26.133Z,7.89
2023-04-02T03:44:58.683Z,7.68
2023-04-02T03:47:34.352Z,7.51
2023-04-02T03:50:07.606Z,7.70
2023-04-02T03:52:36.905Z,7.68
2023-04-02T03:55:15.966Z,7.36
2023-04-02T03:57:51.895Z,7.05
2023-04-02T04:00:26.444Z,7.48
2023-04-02T04:02:59.179Z,7.40
2023-04-02T04:05:30.348Z,7.58
2023-04-02T04:08:02.472Z,7.55
2023-04-02T04:10:31.870Z,7.03
2023-04-02T04:13:02.480Z,7.46
2023-04-02T04:15:34.582Z,7.28
2023-04-02T04:18:10.463Z,7.30
2023-04-02T04:20:47.419Z,7.41
2023-04-02T04:23:20.017Z,7.17
2023-04-02T04:25:50.609Z,6.98
2023-04-02T04:28:26.713Z,6.99
2023-04-02T04:31:00.106Z,7.50
2023-04-02T04:33:34.605Z,7.54
2023-04-02T04:36:03.881Z,7.53
2023-04-02T04:38:33.977Z,7.19
2023-04-02T04:41:11.173Z,7.06
2023-04-02T04:43:46.663Z,7.30
2023-04-02T04:46:18.317Z,7.85
2023-04-02T04:48:52.155Z,9.08
2023-04-02T04:51:25.324Z,10.90
2023-04-02T04:53:55.333Z,12.23
2023-04-02T04:56:26.680Z,13.70
2023-04-02T04:58:58.253Z,15.22
2023-04-02T05:01:33.539Z,16.37
2023-04-02T05:04:09.280Z,17.11
2023-04-02T05:06:42.923Z,17.77
2023-04-02T05:09:16.946Z,18.34
2023-04-02T05:11:47.307Z,18.75
2023-04-02T05:14:23.756Z,19.43
2023-04-02T05:16:56.792Z,19.85
2023-04-02T05:19:28.058Z,20.32
2023-04-02T05:22:03.669Z,20.68
2023-04-02T05:24:42.160Z,20.47
2023-04-02T05:27:20.048Z,20.80
2023-04-02T05:29:52.863Z,20.91
2023-04-02T05:32:24.010Z,20.71
2023-04-02T05:34:55.054Z,20.15
2023-04-02T05:37:26.398Z,19.54
2023-04-02T05:39:56.587Z,18.70
2023-04-02T05:42:27.088Z,18.04
2023-04-02T05:45:08.528Z,17.63
2023-04-02T05:47:41.148Z,16.92
2023-04-02T05:50:20.495Z,16.60
2023-04-02T05:52:54.765Z,16.73
2023-04-02T05:55:40.075Z,16.93
2023-04-02T05:58:34.695Z,17.03
2023-04-02T06:01:12.508Z,16.91
2023-04-02T06:03:48.996Z,16.37
2023-04-02T06:06:22.921Z,16.32
2023-04-02T06:08:58.399Z,15.84
2023-04-02T06:11:30.838Z,15.46
2023-04-02T06:13:58.790Z,15.56
2023-04-02T06:16:30.966Z,15.39
2023-04-02T06:18:58.684Z,15.29
2023-04-02T06:21:26.781Z,15.20
2023-04-02T06:23:59.050Z,14.86
2023-04-02T06:26:29.907Z,14.86
2023-04-02T06:29:04.442Z,14.90
2023-04-02T06:31:38.438Z,15.04
2023-04-02T06:34:11.519Z,15.36
2023-04-02T06:36:38.624Z,15.50
2023-04-02T06:39:14.619Z,15.53
2023-04-02T06:41:41.561Z,15.74
2023-04-02T06:44:14.736Z,15.71
2023-04-02T06:46:47.021Z,15.73
2023-04-02T06:49:21.153Z,15.81
2023-04-02T06:51:53.062Z,15.92
2023-04-02T06:54:22.230Z,15.83
2023-04-02T06:56:51.496Z,15.98
2023-04-02T06:59:19.485Z,16.22
2023-04-02T07:01:54.181Z,16.37
2023-04-02T07:04:22.914Z,16.39
2023-04-02T07:06:51.250Z,16.45
2023-04-02T07:09:19.114Z,16.54
2023-04-02T07:11:48.601Z,16.57
2023-04-02T07:14:16.569Z,16.28
2023-04-02T07:16:44.678Z,16.01
2023-04-02T07:19:18.081Z,16.14
2023-04-02T07:21:45.451Z,16.10
2023-04-02T07:24:12.803Z,14.64
2023-04-02T07:26:40.246Z,13.95
2023-04-02T07:29:13.577Z,13.02
2023-04-02T07:31:40.979Z,12.49
2023-04-02T07:34:09.412Z,12.52
2023-04-02T07:36:36.521Z,13.02
2023-04-02T07:39:04.353Z,13.45
2023-04-02T07:41:31.443Z,13.83
2023-04-02T07:43:58.668Z,14.14
2023-04-02T07:46:27.108Z,14.39
2023-04-02T07:48:54.509Z,14.55
2023-04-02T07:51:23.508Z,14.54
2023-04-02T07:53:55.028Z,14.48
2023-04-02T07:56:23.646Z,14.84
2023-04-02T07:58:50.904Z,15.12
2023-04-02T08:01:19.992Z,15.19
2023-04-02T08:03:49.778Z,15.54
2023-04-02T08:06:17.754Z,15.60
2023-04-02T08:08:45.279Z,15.59
2023-04-02T08:11:12.301Z,15.58
2023-04-02T08:13:39.852Z,15.72
2023-04-02T08:16:07.665Z,16.13
2023-04-02T08:18:35.805Z,16.36
2023-04-02T08:21:06.799Z,16.54
2023-04-02T08:23:35.133Z,16.59
2023-04-02T08:26:02.464Z,16.34
2023-04-02T08:28:30.160Z,16.63
2023-04-02T08:30:57.294Z,16.65
2023-04-02T08:33:25.147Z,15.89
2023-04-02T08:35:52.107Z,16.20
2023-04-02T08:38:23.004Z,15.96
2023-04-02T08:40:52.185Z,16.07
2023-04-02T08:43:38.837Z,16.46
2023-04-02T08:46:14.637Z,16.47
2023-04-02T08:48:46.027Z,16.23
2023-04-02T08:51:22.004Z,16.57
2023-04-02T08:53:53.431Z,16.67
2023-04-02T08:56:27.225Z,16.64
2023-04-02T08:58:57.894Z,16.45
2023-04-02T09:01:36.188Z,16.21
2023-04-02T09:04:07.186Z,16.51
2023-04-02T09:06:34.771Z,16.29
2023-04-02T09:09:05.007Z,16.70
2023-04-02T09:11:41.697Z,16.73
2023-04-02T09:14:17.657Z,16.83
2023-04-02T09:16:51.561Z,16.98
2023-04-02T09:19:24.240Z,16.98
2023-04-02T09:22:06.442Z,17.27
2023-04-02T09:24:41.297Z,17.24
2023-04-02T09:27:20.937Z,17.46
2023-04-02T09:29:51.957Z,17.46
2023-04-02T09:32:27.830Z,17.25
2023-04-02T09:35:15.001Z,17.33
2023-04-02T09:38:11.865Z,17.25
2023-04-02T09:40:46.828Z,17.33
2023-04-02T09:43:16.051Z,16.80
2023-04-02T09:45:55.426Z,16.44
2023-04-02T09:48:26.168Z,17.08
2023-04-02T09:51:11.522Z,17.08
2023-04-02T09:53:44.578Z,17.10
2023-04-02T09:56:16.921Z,17.17
2023-04-02T09:58:45.306Z,17.18
2023-04-02T10:01:30.668Z,17.21
2023-04-02T10:03:59.249Z,17.11
2023-04-02T10:06:28.652Z,16.90
2023-04-02T10:08:56.468Z,16.71
2023-04-02T10:11:36.454Z,16.79
2023-04-02T10:14:12.033Z,16.83
2023-04-02T10:16:42.339Z,16.89
2023-04-02T10:19:16.939Z,16.87
2023-04-02T10:21:45.683Z,16.25
2023-04-02T10:24:14.503Z,17.07
2023-04-02T10:26:53.688Z,17.00
2023-04-02T10:30:02.793Z,17.26
2023-04-02T10:32:38.217Z,17.38
2023-04-02T10:35:16.551Z,17.32
2023-04-02T10:38:32.717Z,17.53
2023-04-02T10:41:04.812Z,17.75
2023-04-02T10:44:12.726Z,18.07
2023-04-02T10:47:00.297Z,17.48
2023-04-02T10:56:23.093Z,18.04
2023-04-02T10:59:15.806Z,17.63
2023-04-02T11:01:47.734Z,17.17
2023-04-02T11:04:22.073Z,16.63
2023-04-02T11:07:03.509Z,16.04
2023-04-02T11:09:43.814Z,16.44
2023-04-02T11:12:25.531Z,16.43
2023-04-02T11:14:56.235Z,16.60
2023-04-02T11:17:24.658Z,16.77
2023-04-02T11:19:52.923Z,16.46
2023-04-02T11:22:22.933Z,16.69
2023-04-02T11:24:56.826Z,16.79
2023-04-02T11:27:27.354Z,16.80
2023-04-02T11:30:04.092Z,16.65
2023-04-02T11:32:39.465Z,16.75
2023-04-02T11:35:37.307Z,16.68
2023-04-02T11:38:52.222Z,16.75
2023-04-02T11:41:57.524Z,16.83
2023-04-02T11:44:28.019Z,16.93
2023-04-02T11:47:16.255Z,16.94
2023-04-02T11:50:25.022Z,16.70
2023-04-02T11:52:54.634Z,16.82
2023-04-02T11:55:29.767Z,16.85
2023-04-02T11:58:38.054Z,16.95
2023-04-02T12:01:38.462Z,16.97
2023-04-02T12:04:40.135Z,16.89
2023-04-02T12:07:26.848Z,16.92
2023-04-02T12:09:57.982Z,16.97
2023-04-02T12:12:28.932Z,16.60
2023-04-02T12:14:57.678Z,16.70
2023-04-02T12:17:29.324Z,16.54
2023-04-02T12:20:01.923Z,16.78
2023-04-02T12:22:32.356Z,16.76
2023-04-02T12:25:05.285Z,16.41
2023-04-02T12:27:32.219Z,16.58
2023-04-02T12:30:12.927Z,16.62
2023-04-02T12:32:40.155Z,16.69
2023-04-02T12:35:27.957Z,16.85
2023-04-02T12:37:55.084Z,16.93
2023-04-02T12:40:22.826Z,17.06
2023-04-02T12:42:54.125Z,17.18
2023-04-02T12:45:23.706Z,17.15
2023-04-02T12:47:53.404Z,17.29
2023-04-02T12:50:23.193Z,17.34
2023-04-02T12:52:53.428Z,17.37
2023-04-02T12:55:24.334Z,17.33
2023-04-02T12:57:56.091Z,17.41
2023-04-02T13:00:36.202Z,17.58
2023-04-02T13:03:28.548Z,17.94
2023-04-02T13:05:58.061Z,18.18
2023-04-02T13:08:28.196Z,18.39
2023-04-02T13:10:58.087Z,18.65
2023-04-02T13:13:35.265Z,18.51
2023-04-02T13:16:09.695Z,18.48
2023-04-02T13:18:39.264Z,18.64
2023-04-02T13:21:27.673Z,18.77
2023-04-02T13:23:57.637Z,18.89
2023-04-02T13:26:28.328Z,18.73
2023-04-02T13:28:57.336Z,18.63
2023-04-02T13:31:24.938Z,18.43
2023-04-02T13:33:52.061Z,18.39
2023-04-02T13:36:21.156Z,18.54
2023-04-02T13:38:47.894Z,18.60
2023-04-02T13:41:22.358Z,18.46
2023-04-02T13:44:00.062Z,18.79
2023-04-02T13:46:31.580Z,18.81
2023-04-02T13:48:59.013Z,18.86
2023-04-02T13:51:36.228Z,18.82
2023-04-02T13:54:09.345Z,18.91
2023-04-02T13:56:37.213Z,18.91
2023-04-02T13:59:05.566Z,18.58
2023-04-02T14:01:33.197Z,18.64
2023-04-02T14:04:01.745Z,18.65
2023-04-02T14:06:49.335Z,18.84
2023-04-02T14:09:27.030Z,19.03
2023-04-02T14:12:01.296Z,19.08
2023-04-02T14:14:45.527Z,18.92
2023-04-02T14:17:24.765Z,18.69
2023-04-02T14:20:10.845Z,18.63
2023-04-02T14:22:52.339Z,18.40
2023-04-02T14:25:26.315Z,18.15
2023-04-02T14:28:03.095Z,18.00
2023-04-02T14:30:43.067Z,18.11
2023-04-02T14:33:20.363Z,18.28
2023-04-02T14:35:53.149Z,18.26
2023-04-02T14:38:29.872Z,18.13
2023-04-02T14:41:05.637Z,18.09
2023-04-02T14:43:43.723Z,17.95
2023-04-02T14:46:11.662Z,17.67
2023-04-02T14:48:48.124Z,17.45
2023-04-02T14:51:25.372Z,17.14
2023-04-02T14:54:06.443Z,17.05
2023-04-02T14:56:39.760Z,16.92
2023-04-02T14:59:23.469Z,16.72
2023-04-02T15:01:57.566Z,16.52
2023-04-02T15:10:29.571Z,16.34
2023-04-02T15:12:58.601Z,16.42
2023-04-02T15:15:40.297Z,16.46
2023-04-02T15:18:13.170Z,16.48
2023-04-02T15:20:48.475Z,16.50
2023-04-02T15:23:23.364Z,16.51
2023-04-02T15:26:02.533Z,16.60
2023-04-02T15:28:35.664Z,16.68
2023-04-02T15:31:11.876Z,16.75
2023-04-02T15:33:45.933Z,16.53
2023-04-02T15:36:44.319Z,16.92
2023-04-02T15:39:25.964Z,16.96
2023-04-02T15:42:04.582Z,17.04
2023-04-02T15:44:33.826Z,17.09
2023-04-02T15:47:06.335Z,17.10
2023-04-02T15:49:41.760Z,17.10
2023-04-02T15:52:13.274Z,17.13
2023-04-02T15:54:55.926Z,16.88
2023-04-02T15:57:45.862Z,16.89
2023-04-02T16:00:23.001Z,16.77
2023-04-02T16:03:18.748Z,16.68
2023-04-02T16:05:56.731Z,16.55
2023-04-02T16:08:37.275Z,16.46
2023-04-02T16:11:10.900Z,16.28
2023-04-02T16:13:40.623Z,16.36
2023-04-02T16:16:11.332Z,16.25
2023-04-02T16:18:46.515Z,16.18
2023-04-02T16:21:18.686Z,16.07
2023-04-02T16:23:45.982Z,15.99
2023-04-02T16:26:41.546Z,16.04
2023-04-02T16:29:23.569Z,16.01
2023-04-02T16:31:58.587Z,15.81
2023-04-02T16:34:36.280Z,15.73
2023-04-02T16:37:16.563Z,15.55
2023-04-02T16:39:54.447Z,15.52
2023-04-02T16:42:34.144Z,15.45
2023-04-02T16:45:24.115Z,15.29
2023-04-02T16:48:03.274Z,15.23
2023-04-02T16:50:38.742Z,15.11
2023-04-02T16:53:21.105Z,14.99
2023-04-02T16:56:12.219Z,14.73
2023-04-02T16:58:52.179Z,14.74
2023-04-02T17:01:28.078Z,14.75
2023-04-02T17:04:30.929Z,14.63
2023-04-02T17:07:05.860Z,14.61
2023-04-02T17:09:43.167Z,14.40
2023-04-02T17:12:16.513Z,14.44
2023-04-02T17:14:50.912Z,14.44
2023-04-02T17:17:21.363Z,14.30
2023-04-02T17:19:52.095Z,14.29
2023-04-02T17:22:21.750Z,14.25
2023-04-02T17:24:53.905Z,14.15
2023-04-02T17:27:28.181Z,14.14
2023-04-02T17:30:00.181Z,14.13
2023-04-02T17:32:32.517Z,14.11
2023-04-02T17:35:17.099Z,14.01
2023-04-02T17:37:51.929Z,14.03
2023-04-02T17:40:28.000Z,13.98
2023-04-02T17:43:04.712Z,13.95
2023-04-02T17:45:42.358Z,13.85
2023-04-02T17:48:19.394Z,13.89
2023-04-02T17:51:11.014Z,13.87
2023-04-02T17:53:47.412Z,13.92
2023-04-02T17:56:46.247Z,13.93
2023-04-02T17:59:26.368Z,13.95
2023-04-02T18:02:02.668Z,13.98
2023-04-02T18:04:41.653Z,13.94
2023-04-02T18:07:24.498Z,14.01
2023-04-02T18:10:02.167Z,13.97
2023-04-02T18:12:44.014Z,13.92
2023-04-02T18:15:35.797Z,13.89
2023-04-02T18:18:10.848Z,13.86
2023-04-02T18:20:43.608Z,13.84
2023-04-02T18:23:21.711Z,13.83
2023-04-02T18:25:59.654Z,13.80
2023-04-02T18:28:43.888Z,13.86
2023-04-02T18:31:20.293Z,13.84
2023-04-02T18:34:41.975Z,13.86
2023-04-02T18:37:22.992Z,13.82
2023-04-02T18:40:18.213Z,13.81
2023-04-02T18:42:55.132Z,13.75
2023-04-02T18:45:31.277Z,13.75
2023-04-02T18:48:09.160Z,13.77
2023-04-02T18:50:39.395Z,13.74
2023-04-02T18:53:14.365Z,13.60
2023-04-02T18:55:46.547Z,13.67
2023-04-02T18:58:19.266Z,13.71
2023-04-02T19:00:48.140Z,13.70
2023-04-02T19:03:22.604Z,13.73
2023-04-02T19:05:55.689Z,13.73
2023-04-02T19:08:30.614Z,13.57
2023-04-02T19:11:00.579Z,13.64
2023-04-02T19:13:27.645Z,13.63
2023-04-02T19:16:30.136Z,13.66
2023-04-02T19:19:07.339Z,13.60
2023-04-02T19:21:44.342Z,13.60
2023-04-02T19:24:28.460Z,13.42
2023-04-02T19:27:01.003Z,13.55
2023-04-02T19:29:39.420Z,13.44
2023-04-02T19:32:14.938Z,13.28
2023-04-02T19:34:49.197Z,13.17
2023-04-02T19:37:25.328Z,13.46
2023-04-02T19:40:18.326Z,13.31
2023-04-02T19:42:48.154Z,12.94
2023-04-02T19:45:29.602Z,12.67
2023-04-02T19:47:59.840Z,12.65
2023-04-02T19:50:27.219Z,13.09
2023-04-02T19:52:54.954Z,13.11
2023-04-02T19:55:23.321Z,13.17
2023-04-02T19:57:52.629Z,12.98
2023-04-02T20:00:21.634Z,13.21
2023-04-02T20:02:48.929Z,13.23
2023-04-02T20:05:16.265Z,13.29
2023-04-02T20:07:43.615Z,13.16
2023-04-02T20:10:11.140Z,13.13
2023-04-02T20:12:40.206Z,13.33
2023-04-02T20:15:08.433Z,13.34
2023-04-02T20:17:35.715Z,13.33
2023-04-02T20:20:02.913Z,13.38
2023-04-02T20:22:31.533Z,13.46
2023-04-02T20:24:58.769Z,13.37
2023-04-02T20:27:26.330Z,13.56
2023-04-02T20:29:54.555Z,13.57
2023-04-02T20:32:22.729Z,13.58
2023-04-02T20:34:49.892Z,13.48
2023-04-02T20:37:17.234Z,13.54
2023-04-02T20:39:44.135Z,13.53
2023-04-02T20:42:11.698Z,13.53
2023-04-02T20:44:38.626Z,13.50
2023-04-02T20:47:08.172Z,13.48
2023-04-02T20:49:35.299Z,13.21
2023-04-02T20:52:02.451Z,13.08
2023-04-02T20:54:29.638Z,13.25
2023-04-02T20:56:56.970Z,13.24
2023-04-02T20:59:24.157Z,13.28
2023-04-02T21:01:51.443Z,13.27
2023-04-02T21:04:20.511Z,13.14
2023-04-02T21:06:48.763Z,13.26
2023-04-02T21:09:17.914Z,13.20
2023-04-02T21:11:45.599Z,13.10
2023-04-02T21:14:13.693Z,12.98
2023-04-02T21:16:44.224Z,13.02
2023-04-02T21:19:11.749Z,12.92
2023-04-02T21:21:40.859Z,12.89
2023-04-02T21:24:09.385Z,12.76
2023-04-02T21:26:38.496Z,12.75
2023-04-02T21:29:06.281Z,12.68
2023-04-02T21:31:35.659Z,12.56
2023-04-02T21:34:03.316Z,12.56
2023-04-02T21:36:32.481Z,12.56
2023-04-02T21:39:02.267Z,12.51
2023-04-02T21:41:31.330Z,12.44
2023-04-02T21:44:04.706Z,12.45
2023-04-02T21:46:34.833Z,12.38
2023-04-02T21:49:02.363Z,12.38
2023-04-02T21:51:31.207Z,12.21
2023-04-02T21:54:00.329Z,12.39
2023-04-02T21:56:29.594Z,12.33
2023-04-02T21:58:57.021Z,12.33
2023-04-02T22:01:29.358Z,12.29
2023-04-02T22:03:58.591Z,12.31
2023-04-02T22:06:28.491Z,12.00
2023-04-02T22:08:57.166Z,12.21
2023-04-02T22:11:26.684Z,12.19
2023-04-02T22:13:54.020Z,12.08
2023-04-02T22:16:22.546Z,12.02
2023-04-02T22:18:50.807Z,12.00
2023-04-02T22:21:19.109Z,11.84
2023-04-02T22:23:46.711Z,11.82
2023-04-02T22:26:16.000Z,11.81
2023-04-02T22:28:44.836Z,11.77
2023-04-02T22:31:13.142Z,11.72
2023-04-02T22:33:41.275Z,11.69
2023-04-02T22:36:09.005Z,11.71
2023-04-02T22:38:36.758Z,11.68
2023-04-02T22:41:08.063Z,11.62
2023-04-02T22:43:36.459Z,11.60
2023-04-02T22:46:06.536Z,11.58
2023-04-02T22:48:33.978Z,11.58
2023-04-02T22:51:01.385Z,11.49
2023-04-02T22:53:28.593Z,11.37
2023-04-02T22:55:55.816Z,11.32
2023-04-02T22:58:23.852Z,11.18
2023-04-02T23:00:51.253Z,11.29
2023-04-02T23:03:22.075Z,11.21
2023-04-02T23:05:58.931Z,11.22
2023-04-02T23:08:25.996Z,11.19
2023-04-02T23:11:00.405Z,11.07
2023-04-02T23:13:27.463Z,11.06
2023-04-02T23:15:55.138Z,11.08
2023-04-02T23:18:23.513Z,11.06
2023-04-02T23:20:50.778Z,11.05
2023-04-02T23:23:17.821Z,10.95
2023-04-02T23:25:45.378Z,10.96
2023-04-02T23:28:13.424Z,10.94
2023-04-02T23:30:41.766Z,10.95
2023-04-02T23:33:09.210Z,10.89
2023-04-02T23:35:38.204Z,10.85
2023-04-02T23:38:05.251Z,10.81
2023-04-02T23:40:32.446Z,10.81
2023-04-02T23:42:59.384Z,10.79
2023-04-02T23:45:26.628Z,10.77
2023-04-02T23:47:53.648Z,10.73
2023-04-02T23:50:21.016Z,10.57
2023-04-02T23:52:49.439Z,10.69
2023-04-02T23:55:16.760Z,10.69
2023-04-02T23:57:43.720Z,10.64
